sensor_id;sensor_type;location;lat;lon;timestamp;P1;durP1;ratioP1;P2;durP2;ratioP2
71108;SDS011;59614;51.012;-1.648;2022-12-07T00:00:50;28.38;;;16.98;;
71108;SDS011;59614;51.012;-1.648;2022-12-07T00:03:15;29.38;;;16.50;;
71108;SDS011;59614;51.012;-1.648;2022-12-07T00:05:40;32.17;;;16.05;;
71108;SDS011;59614;51.012;-1.648;2022-12-07T00:08:06;30.20;;;15.63;;
71108;SDS011;59614;51.012;-1.648;2022-12-07T00:10:33;30.58;;;16.80;;
71108;SDS011;59614;51.012;-1.648;2022-12-07T00:12:59;30.73;;;15.77;;
71108;SDS011;59614;51.012;-1.648;2022-12-07T00:15:25;36.30;;;17.05;;
71108;SDS011;59614;51.012;-1.648;2022-12-07T00:17:50;32.60;;;16.58;;
71108;SDS011;59614;51.012;-1.648;2022-12-07T00:20:15;27.15;;;17.13;;
71108;SDS011;59614;51.012;-1.648;2022-12-07T00:22:41;30.50;;;15.82;;
71108;SDS011;59614;51.012;-1.648;2022-12-07T00:25:06;30.00;;;15.50;;
71108;SDS011;59614;51.012;-1.648;2022-12-07T00:27:32;35.60;;;15.80;;
71108;SDS011;59614;51.012;-1.648;2022-12-07T00:29:57;34.28;;;15.75;;
71108;SDS011;59614;51.012;-1.648;2022-12-07T00:32:22;29.92;;;14.80;;
71108;SDS011;59614;51.012;-1.648;2022-12-07T00:34:48;33.40;;;16.02;;
71108;SDS011;59614;51.012;-1.648;2022-12-07T00:37:13;41.22;;;17.08;;
71108;SDS011;59614;51.012;-1.648;2022-12-07T00:39:39;30.48;;;15.25;;
71108;SDS011;59614;51.012;-1.648;2022-12-07T00:42:04;32.90;;;15.90;;
71108;SDS011;59614;51.012;-1.648;2022-12-07T00:44:29;30.77;;;15.52;;
71108;SDS011;59614;51.012;-1.648;2022-12-07T00:46:55;37.28;;;15.13;;
71108;SDS011;59614;51.012;-1.648;2022-12-07T00:49:20;28.98;;;14.63;;
71108;SDS011;59614;51.012;-1.648;2022-12-07T00:51:47;29.48;;;14.73;;
71108;SDS011;59614;51.012;-1.648;2022-12-07T00:54:13;29.90;;;14.57;;
71108;SDS011;59614;51.012;-1.648;2022-12-07T00:56:39;28.05;;;14.68;;
71108;SDS011;59614;51.012;-1.648;2022-12-07T00:59:04;30.40;;;14.55;;
71108;SDS011;59614;51.012;-1.648;2022-12-07T01:01:34;30.50;;;14.68;;
71108;SDS011;59614;51.012;-1.648;2022-12-07T01:04:01;33.42;;;14.73;;
71108;SDS011;59614;51.012;-1.648;2022-12-07T01:06:26;31.92;;;15.48;;
71108;SDS011;59614;51.012;-1.648;2022-12-07T01:08:53;30.58;;;14.20;;
71108;SDS011;59614;51.012;-1.648;2022-12-07T01:11:20;34.45;;;14.52;;
71108;SDS011;59614;51.012;-1.648;2022-12-07T01:13:49;30.10;;;14.23;;
71108;SDS011;59614;51.012;-1.648;2022-12-07T01:16:19;30.10;;;13.35;;
71108;SDS011;59614;51.012;-1.648;2022-12-07T01:18:47;32.60;;;14.60;;
71108;SDS011;59614;51.012;-1.648;2022-12-07T01:21:19;28.05;;;13.65;;
71108;SDS011;59614;51.012;-1.648;2022-12-07T01:23:46;35.88;;;13.95;;
71108;SDS011;59614;51.012;-1.648;2022-12-07T01:26:13;28.92;;;14.38;;
71108;SDS011;59614;51.012;-1.648;2022-12-07T01:28:41;32.85;;;13.77;;
71108;SDS011;59614;51.012;-1.648;2022-12-07T01:31:11;32.80;;;13.20;;
71108;SDS011;59614;51.012;-1.648;2022-12-07T01:33:40;26.33;;;13.73;;
71108;SDS011;59614;51.012;-1.648;2022-12-07T01:36:13;32.83;;;14.38;;
71108;SDS011;59614;51.012;-1.648;2022-12-07T01:38:47;22.75;;;13.10;;
71108;SDS011;59614;51.012;-1.648;2022-12-07T01:41:16;27.90;;;13.85;;
71108;SDS011;59614;51.012;-1.648;2022-12-07T01:46:41;26.70;;;13.30;;
71108;SDS011;59614;51.012;-1.648;2022-12-07T01:49:09;28.08;;;13.75;;
71108;SDS011;59614;51.012;-1.648;2022-12-07T01:51:39;27.17;;;12.52;;
71108;SDS011;59614;51.012;-1.648;2022-12-07T01:54:07;29.77;;;13.75;;
71108;SDS011;59614;51.012;-1.648;2022-12-07T01:56:34;24.70;;;13.30;;
71108;SDS011;59614;51.012;-1.648;2022-12-07T01:59:01;28.95;;;13.93;;
71108;SDS011;59614;51.012;-1.648;2022-12-07T02:01:26;25.75;;;12.02;;
71108;SDS011;59614;51.012;-1.648;2022-12-07T02:03:53;27.30;;;13.23;;
71108;SDS011;59614;51.012;-1.648;2022-12-07T02:06:20;29.42;;;14.02;;
71108;SDS011;59614;51.012;-1.648;2022-12-07T02:08:48;28.90;;;13.63;;
71108;SDS011;59614;51.012;-1.648;2022-12-07T02:11:14;31.50;;;13.68;;
71108;SDS011;59614;51.012;-1.648;2022-12-07T02:13:40;30.15;;;13.18;;
71108;SDS011;59614;51.012;-1.648;2022-12-07T02:29:49;29.75;;;14.93;;
71108;SDS011;59614;51.012;-1.648;2022-12-07T02:32:26;27.58;;;14.10;;
71108;SDS011;59614;51.012;-1.648;2022-12-07T02:40:50;30.58;;;14.57;;
71108;SDS011;59614;51.012;-1.648;2022-12-07T02:43:21;28.25;;;14.18;;
71108;SDS011;59614;51.012;-1.648;2022-12-07T02:45:54;28.00;;;13.30;;
71108;SDS011;59614;51.012;-1.648;2022-12-07T02:48:25;25.80;;;12.70;;
71108;SDS011;59614;51.012;-1.648;2022-12-07T02:50:52;27.77;;;12.55;;
71108;SDS011;59614;51.012;-1.648;2022-12-07T02:55:57;27.63;;;14.05;;
71108;SDS011;59614;51.012;-1.648;2022-12-07T03:03:30;24.65;;;12.95;;
71108;SDS011;59614;51.012;-1.648;2022-12-07T03:11:10;30.40;;;13.95;;
71108;SDS011;59614;51.012;-1.648;2022-12-07T03:16:42;33.38;;;13.18;;
71108;SDS011;59614;51.012;-1.648;2022-12-07T03:19:29;29.85;;;12.63;;
71108;SDS011;59614;51.012;-1.648;2022-12-07T03:21:57;28.30;;;12.45;;
71108;SDS011;59614;51.012;-1.648;2022-12-07T03:24:29;24.75;;;12.65;;
71108;SDS011;59614;51.012;-1.648;2022-12-07T03:27:03;36.33;;;13.00;;
71108;SDS011;59614;51.012;-1.648;2022-12-07T03:29:37;25.17;;;12.98;;
71108;SDS011;59614;51.012;-1.648;2022-12-07T03:32:30;26.10;;;12.85;;
71108;SDS011;59614;51.012;-1.648;2022-12-07T03:35:08;29.65;;;13.85;;
71108;SDS011;59614;51.012;-1.648;2022-12-07T03:38:04;24.08;;;12.45;;
71108;SDS011;59614;51.012;-1.648;2022-12-07T03:40:34;27.67;;;12.63;;
71108;SDS011;59614;51.012;-1.648;2022-12-07T03:43:04;24.95;;;11.98;;
71108;SDS011;59614;51.012;-1.648;2022-12-07T03:45:54;26.33;;;11.75;;
71108;SDS011;59614;51.012;-1.648;2022-12-07T03:48:31;30.33;;;12.87;;
71108;SDS011;59614;51.012;-1.648;2022-12-07T03:54:29;23.42;;;12.88;;
71108;SDS011;59614;51.012;-1.648;2022-12-07T03:56:37;26.40;;;12.68;;
71108;SDS011;59614;51.012;-1.648;2022-12-07T03:59:04;24.98;;;13.25;;
71108;SDS011;59614;51.012;-1.648;2022-12-07T04:01:29;30.55;;;13.00;;
71108;SDS011;59614;51.012;-1.648;2022-12-07T04:03:56;23.17;;;12.63;;
71108;SDS011;59614;51.012;-1.648;2022-12-07T04:06:22;36.47;;;13.10;;
71108;SDS011;59614;51.012;-1.648;2022-12-07T04:08:47;29.63;;;13.20;;
71108;SDS011;59614;51.012;-1.648;2022-12-07T04:11:12;27.73;;;12.48;;
71108;SDS011;59614;51.012;-1.648;2022-12-07T04:13:38;26.70;;;12.98;;
71108;SDS011;59614;51.012;-1.648;2022-12-07T04:16:22;22.58;;;12.00;;
71108;SDS011;59614;51.012;-1.648;2022-12-07T04:18:47;22.75;;;12.23;;
71108;SDS011;59614;51.012;-1.648;2022-12-07T04:21:13;25.27;;;11.13;;
71108;SDS011;59614;51.012;-1.648;2022-12-07T04:23:38;27.00;;;11.65;;
71108;SDS011;59614;51.012;-1.648;2022-12-07T04:26:04;22.17;;;10.43;;
71108;SDS011;59614;51.012;-1.648;2022-12-07T04:28:29;22.58;;;10.60;;
71108;SDS011;59614;51.012;-1.648;2022-12-07T04:30:55;22.83;;;11.32;;
71108;SDS011;59614;51.012;-1.648;2022-12-07T04:33:20;23.52;;;11.23;;
71108;SDS011;59614;51.012;-1.648;2022-12-07T04:35:45;21.38;;;10.55;;
71108;SDS011;59614;51.012;-1.648;2022-12-07T04:38:11;24.58;;;12.02;;
71108;SDS011;59614;51.012;-1.648;2022-12-07T04:40:36;27.05;;;11.23;;
71108;SDS011;59614;51.012;-1.648;2022-12-07T04:43:02;28.77;;;11.00;;
71108;SDS011;59614;51.012;-1.648;2022-12-07T04:45:27;25.13;;;10.88;;
71108;SDS011;59614;51.012;-1.648;2022-12-07T04:47:52;21.35;;;10.68;;
71108;SDS011;59614;51.012;-1.648;2022-12-07T04:50:18;26.17;;;12.07;;
71108;SDS011;59614;51.012;-1.648;2022-12-07T04:52:43;33.72;;;12.55;;
71108;SDS011;59614;51.012;-1.648;2022-12-07T04:55:09;23.92;;;12.32;;
71108;SDS011;59614;51.012;-1.648;2022-12-07T04:57:34;24.55;;;11.82;;
71108;SDS011;59614;51.012;-1.648;2022-12-07T05:00:00;31.73;;;12.93;;
71108;SDS011;59614;51.012;-1.648;2022-12-07T05:02:25;26.77;;;11.90;;
71108;SDS011;59614;51.012;-1.648;2022-12-07T05:04:50;20.98;;;12.30;;
71108;SDS011;59614;51.012;-1.648;2022-12-07T05:07:16;26.35;;;12.45;;
71108;SDS011;59614;51.012;-1.648;2022-12-07T05:09:41;26.17;;;11.88;;
71108;SDS011;59614;51.012;-1.648;2022-12-07T05:12:06;21.70;;;11.90;;
71108;SDS011;59614;51.012;-1.648;2022-12-07T05:14:32;24.45;;;11.93;;
71108;SDS011;59614;51.012;-1.648;2022-12-07T05:16:57;22.38;;;11.38;;
71108;SDS011;59614;51.012;-1.648;2022-12-07T05:19:23;32.67;;;13.82;;
71108;SDS011;59614;51.012;-1.648;2022-12-07T05:21:48;27.73;;;12.68;;
71108;SDS011;59614;51.012;-1.648;2022-12-07T05:24:14;26.88;;;13.30;;
71108;SDS011;59614;51.012;-1.648;2022-12-07T05:27:06;27.88;;;12.35;;
71108;SDS011;59614;51.012;-1.648;2022-12-07T05:29:57;26.40;;;12.68;;
71108;SDS011;59614;51.012;-1.648;2022-12-07T05:32:48;24.65;;;10.20;;
71108;SDS011;59614;51.012;-1.648;2022-12-07T05:35:39;27.05;;;11.23;;
71108;SDS011;59614;51.012;-1.648;2022-12-07T05:38:29;23.15;;;11.32;;
71108;SDS011;59614;51.012;-1.648;2022-12-07T08:01:15;32.00;;;16.05;;
71108;SDS011;59614;51.012;-1.648;2022-12-07T08:03:41;31.98;;;15.38;;
71108;SDS011;59614;51.012;-1.648;2022-12-07T08:06:06;33.63;;;16.10;;
71108;SDS011;59614;51.012;-1.648;2022-12-07T08:08:32;30.38;;;15.07;;
71108;SDS011;59614;51.012;-1.648;2022-12-07T08:10:57;31.55;;;14.75;;
71108;SDS011;59614;51.012;-1.648;2022-12-07T08:13:26;35.80;;;15.82;;
71108;SDS011;59614;51.012;-1.648;2022-12-07T08:15:51;27.17;;;14.52;;
71108;SDS011;59614;51.012;-1.648;2022-12-07T08:18:16;23.92;;;14.32;;
71108;SDS011;59614;51.012;-1.648;2022-12-07T08:20:42;27.27;;;14.18;;
71108;SDS011;59614;51.012;-1.648;2022-12-07T08:23:07;33.40;;;14.95;;
71108;SDS011;59614;51.012;-1.648;2022-12-07T08:25:35;24.90;;;14.65;;
71108;SDS011;59614;51.012;-1.648;2022-12-07T08:28:01;33.08;;;14.60;;
71108;SDS011;59614;51.012;-1.648;2022-12-07T08:30:27;31.77;;;13.77;;
71108;SDS011;59614;51.012;-1.648;2022-12-07T08:32:54;31.23;;;13.68;;
71108;SDS011;59614;51.012;-1.648;2022-12-07T08:35:21;32.15;;;14.60;;
71108;SDS011;59614;51.012;-1.648;2022-12-07T08:37:46;25.48;;;14.73;;
71108;SDS011;59614;51.012;-1.648;2022-12-07T08:40:12;35.53;;;15.65;;
71108;SDS011;59614;51.012;-1.648;2022-12-07T08:42:43;30.58;;;14.52;;
71108;SDS011;59614;51.012;-1.648;2022-12-07T08:45:19;29.30;;;14.93;;
71108;SDS011;59614;51.012;-1.648;2022-12-07T08:47:48;28.02;;;14.27;;
71108;SDS011;59614;51.012;-1.648;2022-12-07T08:50:17;32.78;;;15.18;;
71108;SDS011;59614;51.012;-1.648;2022-12-07T08:52:43;27.50;;;14.45;;
71108;SDS011;59614;51.012;-1.648;2022-12-07T08:55:10;27.95;;;15.40;;
71108;SDS011;59614;51.012;-1.648;2022-12-07T08:57:37;31.17;;;16.42;;
71108;SDS011;59614;51.012;-1.648;2022-12-07T09:00:04;31.40;;;15.20;;
71108;SDS011;59614;51.012;-1.648;2022-12-07T09:02:31;31.63;;;16.05;;
71108;SDS011;59614;51.012;-1.648;2022-12-07T09:04:57;35.58;;;16.08;;
71108;SDS011;59614;51.012;-1.648;2022-12-07T09:07:22;28.45;;;14.68;;
71108;SDS011;59614;51.012;-1.648;2022-12-07T09:09:48;31.75;;;15.80;;
71108;SDS011;59614;51.012;-1.648;2022-12-07T09:12:13;29.10;;;15.05;;
71108;SDS011;59614;51.012;-1.648;2022-12-07T09:14:39;29.58;;;15.70;;
71108;SDS011;59614;51.012;-1.648;2022-12-07T09:17:08;28.92;;;15.85;;
71108;SDS011;59614;51.012;-1.648;2022-12-07T09:19:35;31.38;;;16.95;;
71108;SDS011;59614;51.012;-1.648;2022-12-07T09:22:01;33.13;;;16.75;;
71108;SDS011;59614;51.012;-1.648;2022-12-07T09:24:27;30.77;;;15.93;;
71108;SDS011;59614;51.012;-1.648;2022-12-07T09:26:52;32.00;;;16.00;;
71108;SDS011;59614;51.012;-1.648;2022-12-07T09:29:18;34.58;;;17.08;;
71108;SDS011;59614;51.012;-1.648;2022-12-07T09:31:43;34.20;;;16.40;;
71108;SDS011;59614;51.012;-1.648;2022-12-07T09:34:09;35.13;;;16.50;;
71108;SDS011;59614;51.012;-1.648;2022-12-07T09:36:34;32.63;;;14.63;;
71108;SDS011;59614;51.012;-1.648;2022-12-07T09:39:00;28.45;;;14.75;;
71108;SDS011;59614;51.012;-1.648;2022-12-07T09:41:26;30.10;;;15.70;;
71108;SDS011;59614;51.012;-1.648;2022-12-07T09:43:56;26.20;;;14.50;;
71108;SDS011;59614;51.012;-1.648;2022-12-07T09:46:29;28.63;;;14.75;;
71108;SDS011;59614;51.012;-1.648;2022-12-07T09:49:00;29.80;;;14.60;;
71108;SDS011;59614;51.012;-1.648;2022-12-07T09:51:26;24.85;;;13.27;;
71108;SDS011;59614;51.012;-1.648;2022-12-07T09:53:52;25.33;;;14.73;;
71108;SDS011;59614;51.012;-1.648;2022-12-07T09:56:19;27.33;;;13.73;;
71108;SDS011;59614;51.012;-1.648;2022-12-07T09:58:46;25.27;;;13.67;;
71108;SDS011;59614;51.012;-1.648;2022-12-07T10:01:15;25.60;;;12.80;;
71108;SDS011;59614;51.012;-1.648;2022-12-07T10:03:55;23.88;;;12.52;;
71108;SDS011;59614;51.012;-1.648;2022-12-07T10:06:34;25.38;;;11.90;;
71108;SDS011;59614;51.012;-1.648;2022-12-07T10:08:59;26.08;;;13.20;;
71108;SDS011;59614;51.012;-1.648;2022-12-07T10:11:25;27.90;;;12.95;;
71108;SDS011;59614;51.012;-1.648;2022-12-07T10:13:52;25.08;;;12.95;;
71108;SDS011;59614;51.012;-1.648;2022-12-07T10:18:49;22.48;;;11.15;;
71108;SDS011;59614;51.012;-1.648;2022-12-07T10:21:16;25.25;;;11.68;;
71108;SDS011;59614;51.012;-1.648;2022-12-07T10:26:35;24.52;;;12.52;;
71108;SDS011;59614;51.012;-1.648;2022-12-07T10:29:13;23.13;;;12.13;;
71108;SDS011;59614;51.012;-1.648;2022-12-07T10:31:42;23.38;;;14.20;;
71108;SDS011;59614;51.012;-1.648;2022-12-07T10:34:23;24.15;;;12.70;;
71108;SDS011;59614;51.012;-1.648;2022-12-07T10:36:50;22.55;;;13.65;;
71108;SDS011;59614;51.012;-1.648;2022-12-07T10:39:20;29.92;;;15.25;;
71108;SDS011;59614;51.012;-1.648;2022-12-07T10:41:57;22.23;;;13.23;;
71108;SDS011;59614;51.012;-1.648;2022-12-07T10:44:26;22.23;;;12.52;;
71108;SDS011;59614;51.012;-1.648;2022-12-07T10:47:05;25.60;;;12.38;;
71108;SDS011;59614;51.012;-1.648;2022-12-07T10:52:52;20.88;;;11.48;;
71108;SDS011;59614;51.012;-1.648;2022-12-07T10:58:30;23.00;;;10.95;;
71108;SDS011;59614;51.012;-1.648;2022-12-07T11:07:14;15.63;;;9.60;;
71108;SDS011;59614;51.012;-1.648;2022-12-07T11:12:27;18.80;;;9.45;;
71108;SDS011;59614;51.012;-1.648;2022-12-07T11:20:56;15.95;;;9.40;;
71108;SDS011;59614;51.012;-1.648;2022-12-07T11:23:42;18.08;;;8.75;;
71108;SDS011;59614;51.012;-1.648;2022-12-07T11:26:18;16.77;;;9.20;;
71108;SDS011;59614;51.012;-1.648;2022-12-07T11:37:12;17.83;;;8.57;;
71108;SDS011;59614;51.012;-1.648;2022-12-07T11:39:47;18.73;;;8.27;;
71108;SDS011;59614;51.012;-1.648;2022-12-07T11:42:21;16.63;;;8.70;;
71108;SDS011;59614;51.012;-1.648;2022-12-07T11:44:57;15.80;;;8.05;;
71108;SDS011;59614;51.012;-1.648;2022-12-07T11:58:30;15.30;;;7.38;;
71108;SDS011;59614;51.012;-1.648;2022-12-07T12:01:18;16.30;;;7.68;;
71108;SDS011;59614;51.012;-1.648;2022-12-07T12:03:49;14.32;;;8.00;;
71108;SDS011;59614;51.012;-1.648;2022-12-07T12:06:18;20.30;;;8.15;;
71108;SDS011;59614;51.012;-1.648;2022-12-07T12:09:04;16.30;;;7.10;;
71108;SDS011;59614;51.012;-1.648;2022-12-07T12:14:25;14.63;;;7.15;;
71108;SDS011;59614;51.012;-1.648;2022-12-07T12:23:06;25.33;;;12.85;;
71108;SDS011;59614;51.012;-1.648;2022-12-07T12:25:45;18.13;;;7.72;;
71108;SDS011;59614;51.012;-1.648;2022-12-07T12:28:22;14.90;;;6.47;;
71108;SDS011;59614;51.012;-1.648;2022-12-07T12:33:42;18.40;;;6.28;;
71108;SDS011;59614;51.012;-1.648;2022-12-07T12:44:01;16.08;;;6.47;;
71108;SDS011;59614;51.012;-1.648;2022-12-07T12:49:15;16.52;;;6.38;;
71108;SDS011;59614;51.012;-1.648;2022-12-07T12:54:38;14.65;;;5.40;;
71108;SDS011;59614;51.012;-1.648;2022-12-07T12:57:24;16.35;;;5.95;;
71108;SDS011;59614;51.012;-1.648;2022-12-07T13:15:47;10.52;;;4.18;;
71108;SDS011;59614;51.012;-1.648;2022-12-07T13:20:58;11.48;;;4.47;;
71108;SDS011;59614;51.012;-1.648;2022-12-07T13:23:25;7.45;;;3.85;;
71108;SDS011;59614;51.012;-1.648;2022-12-07T13:26:21;14.18;;;4.53;;
71108;SDS011;59614;51.012;-1.648;2022-12-07T13:34:32;9.30;;;3.58;;
71108;SDS011;59614;51.012;-1.648;2022-12-07T13:44:56;10.90;;;3.63;;
71108;SDS011;59614;51.012;-1.648;2022-12-07T13:47:41;7.65;;;3.22;;
71108;SDS011;59614;51.012;-1.648;2022-12-07T13:50:26;10.00;;;3.47;;
71108;SDS011;59614;51.012;-1.648;2022-12-07T13:52:57;7.65;;;3.20;;
71108;SDS011;59614;51.012;-1.648;2022-12-07T13:55:23;8.35;;;3.22;;
71108;SDS011;59614;51.012;-1.648;2022-12-07T13:57:50;7.60;;;3.35;;
71108;SDS011;59614;51.012;-1.648;2022-12-07T14:02:59;10.43;;;3.40;;
71108;SDS011;59614;51.012;-1.648;2022-12-07T14:05:30;10.05;;;3.83;;
71108;SDS011;59614;51.012;-1.648;2022-12-07T14:08:01;11.02;;;4.03;;
71108;SDS011;59614;51.012;-1.648;2022-12-07T14:10:32;6.93;;;3.47;;
71108;SDS011;59614;51.012;-1.648;2022-12-07T14:13:01;10.13;;;3.97;;
71108;SDS011;59614;51.012;-1.648;2022-12-07T14:15:44;12.10;;;3.83;;
71108;SDS011;59614;51.012;-1.648;2022-12-07T14:18:26;7.97;;;3.60;;
71108;SDS011;59614;51.012;-1.648;2022-12-07T14:21:04;6.30;;;3.33;;
71108;SDS011;59614;51.012;-1.648;2022-12-07T14:23:31;10.85;;;4.15;;
71108;SDS011;59614;51.012;-1.648;2022-12-07T14:28:44;10.75;;;4.55;;
71108;SDS011;59614;51.012;-1.648;2022-12-07T14:31:14;9.65;;;4.07;;
71108;SDS011;59614;51.012;-1.648;2022-12-07T14:33:41;11.60;;;4.03;;
71108;SDS011;59614;51.012;-1.648;2022-12-07T14:36:11;13.52;;;3.80;;
71108;SDS011;59614;51.012;-1.648;2022-12-07T14:38:37;13.20;;;3.90;;
71108;SDS011;59614;51.012;-1.648;2022-12-07T14:41:03;6.20;;;3.50;;
71108;SDS011;59614;51.012;-1.648;2022-12-07T14:43:49;9.07;;;3.85;;
71108;SDS011;59614;51.012;-1.648;2022-12-07T14:46:15;9.57;;;3.60;;
71108;SDS011;59614;51.012;-1.648;2022-12-07T14:48:41;13.55;;;4.07;;
71108;SDS011;59614;51.012;-1.648;2022-12-07T14:51:07;8.90;;;3.33;;
71108;SDS011;59614;51.012;-1.648;2022-12-07T14:53:39;11.82;;;3.50;;
71108;SDS011;59614;51.012;-1.648;2022-12-07T14:56:07;10.45;;;3.33;;
71108;SDS011;59614;51.012;-1.648;2022-12-07T14:58:33;11.13;;;4.40;;
71108;SDS011;59614;51.012;-1.648;2022-12-07T15:00:59;10.82;;;3.90;;
71108;SDS011;59614;51.012;-1.648;2022-12-07T15:03:25;11.00;;;3.90;;
71108;SDS011;59614;51.012;-1.648;2022-12-07T15:05:50;8.05;;;3.58;;
71108;SDS011;59614;51.012;-1.648;2022-12-07T15:08:16;14.48;;;3.97;;
71108;SDS011;59614;51.012;-1.648;2022-12-07T15:10:41;14.50;;;4.30;;
71108;SDS011;59614;51.012;-1.648;2022-12-07T15:13:07;9.40;;;4.00;;
71108;SDS011;59614;51.012;-1.648;2022-12-07T15:15:52;12.50;;;5.25;;
71108;SDS011;59614;51.012;-1.648;2022-12-07T15:18:19;11.83;;;4.87;;
71108;SDS011;59614;51.012;-1.648;2022-12-07T15:20:46;13.13;;;5.32;;
71108;SDS011;59614;51.012;-1.648;2022-12-07T15:23:12;11.05;;;5.22;;
71108;SDS011;59614;51.012;-1.648;2022-12-07T15:25:41;11.27;;;5.22;;
71108;SDS011;59614;51.012;-1.648;2022-12-07T15:28:10;13.27;;;5.05;;
71108;SDS011;59614;51.012;-1.648;2022-12-07T15:30:37;12.70;;;6.05;;
71108;SDS011;59614;51.012;-1.648;2022-12-07T15:33:03;15.30;;;5.55;;
71108;SDS011;59614;51.012;-1.648;2022-12-07T15:35:28;12.65;;;6.93;;
71108;SDS011;59614;51.012;-1.648;2022-12-07T15:37:53;20.02;;;10.95;;
71108;SDS011;59614;51.012;-1.648;2022-12-07T15:40:19;15.98;;;9.52;;
71108;SDS011;59614;51.012;-1.648;2022-12-07T15:42:44;16.27;;;7.70;;
71108;SDS011;59614;51.012;-1.648;2022-12-07T15:45:10;22.83;;;10.10;;
71108;SDS011;59614;51.012;-1.648;2022-12-07T15:47:37;18.77;;;10.07;;
71108;SDS011;59614;51.012;-1.648;2022-12-07T15:52:30;15.45;;;6.22;;
71108;SDS011;59614;51.012;-1.648;2022-12-07T15:54:56;22.98;;;11.82;;
71108;SDS011;59614;51.012;-1.648;2022-12-07T15:57:21;18.98;;;7.90;;
71108;SDS011;59614;51.012;-1.648;2022-12-07T15:59:47;21.30;;;11.52;;
71108;SDS011;59614;51.012;-1.648;2022-12-07T16:02:12;17.85;;;9.25;;
71108;SDS011;59614;51.012;-1.648;2022-12-07T16:04:38;12.68;;;5.72;;
71108;SDS011;59614;51.012;-1.648;2022-12-07T16:07:04;14.13;;;5.53;;
71108;SDS011;59614;51.012;-1.648;2022-12-07T16:09:30;18.35;;;6.05;;
71108;SDS011;59614;51.012;-1.648;2022-12-07T16:11:56;15.32;;;5.88;;
71108;SDS011;59614;51.012;-1.648;2022-12-07T16:14:21;15.02;;;5.68;;
71108;SDS011;59614;51.012;-1.648;2022-12-07T16:16:47;15.85;;;5.90;;
71108;SDS011;59614;51.012;-1.648;2022-12-07T16:19:13;14.70;;;5.72;;
71108;SDS011;59614;51.012;-1.648;2022-12-07T16:21:38;11.93;;;5.30;;
71108;SDS011;59614;51.012;-1.648;2022-12-07T16:24:04;19.33;;;6.25;;
71108;SDS011;59614;51.012;-1.648;2022-12-07T16:26:30;16.55;;;6.45;;
71108;SDS011;59614;51.012;-1.648;2022-12-07T16:28:56;12.50;;;6.78;;
71108;SDS011;59614;51.012;-1.648;2022-12-07T16:31:23;22.80;;;6.65;;
71108;SDS011;59614;51.012;-1.648;2022-12-07T16:36:17;12.30;;;6.47;;
71108;SDS011;59614;51.012;-1.648;2022-12-07T16:38:43;16.60;;;6.40;;
71108;SDS011;59614;51.012;-1.648;2022-12-07T16:41:09;13.27;;;6.55;;
71108;SDS011;59614;51.012;-1.648;2022-12-07T16:43:35;16.15;;;6.72;;
71108;SDS011;59614;51.012;-1.648;2022-12-07T16:46:01;15.45;;;7.40;;
71108;SDS011;59614;51.012;-1.648;2022-12-07T16:48:28;23.65;;;9.38;;
71108;SDS011;59614;51.012;-1.648;2022-12-07T16:50:53;19.42;;;8.65;;
71108;SDS011;59614;51.012;-1.648;2022-12-07T16:53:19;19.58;;;7.30;;
71108;SDS011;59614;51.012;-1.648;2022-12-07T16:55:46;16.30;;;6.70;;
71108;SDS011;59614;51.012;-1.648;2022-12-07T16:58:13;15.52;;;6.75;;
71108;SDS011;59614;51.012;-1.648;2022-12-07T17:00:42;13.05;;;6.28;;
71108;SDS011;59614;51.012;-1.648;2022-12-07T17:03:09;19.08;;;7.80;;
71108;SDS011;59614;51.012;-1.648;2022-12-07T17:05:39;20.65;;;7.90;;
71108;SDS011;59614;51.012;-1.648;2022-12-07T17:08:06;23.23;;;7.90;;
71108;SDS011;59614;51.012;-1.648;2022-12-07T17:10:33;20.73;;;8.13;;
71108;SDS011;59614;51.012;-1.648;2022-12-07T17:13:02;15.18;;;7.70;;
71108;SDS011;59614;51.012;-1.648;2022-12-07T17:16:01;18.30;;;7.87;;
71108;SDS011;59614;51.012;-1.648;2022-12-07T17:18:32;17.42;;;8.13;;
71108;SDS011;59614;51.012;-1.648;2022-12-07T17:21:07;23.05;;;8.27;;
71108;SDS011;59614;51.012;-1.648;2022-12-07T17:23:34;16.67;;;8.20;;
71108;SDS011;59614;51.012;-1.648;2022-12-07T17:26:04;23.38;;;8.82;;
71108;SDS011;59614;51.012;-1.648;2022-12-07T17:28:40;19.63;;;9.20;;
71108;SDS011;59614;51.012;-1.648;2022-12-07T17:31:06;24.90;;;10.32;;
71108;SDS011;59614;51.012;-1.648;2022-12-07T17:33:36;18.45;;;8.23;;
71108;SDS011;59614;51.012;-1.648;2022-12-07T17:36:09;17.55;;;9.32;;
71108;SDS011;59614;51.012;-1.648;2022-12-07T17:38:35;22.48;;;8.85;;
71108;SDS011;59614;51.012;-1.648;2022-12-07T17:41:08;24.77;;;11.35;;
71108;SDS011;59614;51.012;-1.648;2022-12-07T17:43:34;22.00;;;9.40;;
71108;SDS011;59614;51.012;-1.648;2022-12-07T17:46:05;21.27;;;9.57;;
71108;SDS011;59614;51.012;-1.648;2022-12-07T17:48:33;20.35;;;9.57;;
71108;SDS011;59614;51.012;-1.648;2022-12-07T17:50:59;23.30;;;10.18;;
71108;SDS011;59614;51.012;-1.648;2022-12-07T17:53:43;49.10;;;25.30;;
71108;SDS011;59614;51.012;-1.648;2022-12-07T17:56:09;42.75;;;18.80;;
71108;SDS011;59614;51.012;-1.648;2022-12-07T17:58:34;28.27;;;16.10;;
71108;SDS011;59614;51.012;-1.648;2022-12-07T18:00:59;32.40;;;15.88;;
71108;SDS011;59614;51.012;-1.648;2022-12-07T18:03:25;28.45;;;14.10;;
71108;SDS011;59614;51.012;-1.648;2022-12-07T18:05:50;37.08;;;16.92;;
71108;SDS011;59614;51.012;-1.648;2022-12-07T18:08:16;33.65;;;18.63;;
71108;SDS011;59614;51.012;-1.648;2022-12-07T18:10:41;26.17;;;14.68;;
71108;SDS011;59614;51.012;-1.648;2022-12-07T18:13:06;30.45;;;17.42;;
71108;SDS011;59614;51.012;-1.648;2022-12-07T18:15:56;26.92;;;14.00;;
71108;SDS011;59614;51.012;-1.648;2022-12-07T18:18:22;21.58;;;12.02;;
71108;SDS011;59614;51.012;-1.648;2022-12-07T18:20:47;25.98;;;12.32;;
71108;SDS011;59614;51.012;-1.648;2022-12-07T18:23:13;26.45;;;10.98;;
71108;SDS011;59614;51.012;-1.648;2022-12-07T18:25:38;18.88;;;9.98;;
71108;SDS011;59614;51.012;-1.648;2022-12-07T18:28:04;19.15;;;9.13;;
71108;SDS011;59614;51.012;-1.648;2022-12-07T18:30:31;17.08;;;9.02;;
71108;SDS011;59614;51.012;-1.648;2022-12-07T18:32:56;24.42;;;16.35;;
71108;SDS011;59614;51.012;-1.648;2022-12-07T18:35:22;25.23;;;13.57;;
71108;SDS011;59614;51.012;-1.648;2022-12-07T18:37:47;24.55;;;12.32;;
71108;SDS011;59614;51.012;-1.648;2022-12-07T18:40:13;24.70;;;11.88;;
71108;SDS011;59614;51.012;-1.648;2022-12-07T18:42:38;34.70;;;16.95;;
71108;SDS011;59614;51.012;-1.648;2022-12-07T18:45:04;38.88;;;20.52;;
71108;SDS011;59614;51.012;-1.648;2022-12-07T18:47:30;29.40;;;15.52;;
71108;SDS011;59614;51.012;-1.648;2022-12-07T18:49:55;21.67;;;11.30;;
71108;SDS011;59614;51.012;-1.648;2022-12-07T18:52:20;20.48;;;10.63;;
71108;SDS011;59614;51.012;-1.648;2022-12-07T18:54:46;18.55;;;9.48;;
71108;SDS011;59614;51.012;-1.648;2022-12-07T18:57:11;19.77;;;9.07;;
71108;SDS011;59614;51.012;-1.648;2022-12-07T18:59:37;19.52;;;8.90;;
71108;SDS011;59614;51.012;-1.648;2022-12-07T19:02:13;16.52;;;8.85;;
71108;SDS011;59614;51.012;-1.648;2022-12-07T19:04:39;20.15;;;8.95;;
71108;SDS011;59614;51.012;-1.648;2022-12-07T19:07:05;21.92;;;8.18;;
71108;SDS011;59614;51.012;-1.648;2022-12-07T19:09:30;17.33;;;8.68;;
71108;SDS011;59614;51.012;-1.648;2022-12-07T19:11:56;16.75;;;7.93;;
71108;SDS011;59614;51.012;-1.648;2022-12-07T19:14:28;23.05;;;8.35;;
71108;SDS011;59614;51.012;-1.648;2022-12-07T19:16:59;18.00;;;9.30;;
71108;SDS011;59614;51.012;-1.648;2022-12-07T19:19:36;13.77;;;7.78;;